Data Viewer
| City | State | Eastern Time | Source | Temp | DewPt | RH | BP | 5 Min Precip | Wind Speed | Wind Dir | 5 Min Wind Max | 5 Min Wind Max Dir |
|---|---|---|---|---|---|---|---|---|---|---|---|---|
| Sea Girt | NJ | 2026-05-09 10:35 | Mesonet | 58 | 53 | 84 | 29.91 | 0.00 | 16 | SSE | 19 | SSE |
| Sea Girt | NJ | 2026-05-10 02:25 | Mesonet | 48 | 48 | 100 | 29.87 | 0.00 | 0 | NE | 2 | NE |
| Sea Girt | NJ | 2026-05-10 02:55 | Mesonet | 48 | 48 | 100 | 29.87 | 0.00 | 0 | NNE | 0 | NNE |
| Sea Girt | NJ | 2026-05-10 02:50 | Mesonet | 48 | 48 | 100 | 29.87 | 0.00 | 0 | NNE | 1 | NNE |
| Sea Girt | NJ | 2026-05-10 02:45 | Mesonet | 48 | 48 | 100 | 29.87 | 0.00 | 0 | NE | 2 | NNE |
| Sea Girt | NJ | 2026-05-10 02:40 | Mesonet | 48 | 48 | 100 | 29.87 | 0.00 | 2 | NNE | 2 | NNE |
| Sea Girt | NJ | 2026-05-10 02:35 | Mesonet | 48 | 48 | 100 | 29.87 | 0.00 | 1 | NNE | 2 | NE |
| Sea Girt | NJ | 2026-05-10 02:30 | Mesonet | 48 | 48 | 100 | 29.87 | 0.00 | 0 | E | 0 | E |
| Sea Girt | NJ | 2026-05-10 02:20 | Mesonet | 48 | 48 | 100 | 29.87 | 0.00 | 2 | NE | 2 | NE |
| Sea Girt | NJ | 2026-05-10 03:05 | Mesonet | 48 | 48 | 100 | 29.87 | 0.00 | 0 | NNE | 0 | NNE |
| Sea Girt | NJ | 2026-05-10 02:15 | Mesonet | 48 | 48 | 100 | 29.87 | 0.00 | 1 | ENE | 2 | ENE |
| Sea Girt | NJ | 2026-05-10 02:10 | Mesonet | 48 | 48 | 100 | 29.87 | 0.00 | 1 | ENE | 1 | ENE |
| Sea Girt | NJ | 2026-05-10 02:05 | Mesonet | 48 | 48 | 100 | 29.87 | 0.00 | 1 | NE | 1 | NE |
| Sea Girt | NJ | 2026-05-10 02:00 | Mesonet | 48 | 48 | 100 | 29.87 | 0.00 | 1 | ENE | 2 | E |
| Sea Girt | NJ | 2026-05-10 01:55 | Mesonet | 48 | 48 | 100 | 29.87 | 0.00 | 2 | E | 2 | E |
| Sea Girt | NJ | 2026-05-10 01:50 | Mesonet | 48 | 48 | 100 | 29.87 | 0.00 | 1 | E | 1 | E |
| Sea Girt | NJ | 2026-05-10 03:00 | Mesonet | 48 | 48 | 100 | 29.87 | 0.00 | 0 | NNE | 0 | NNE |
| Sea Girt | NJ | 2026-05-10 03:10 | Mesonet | 48 | 48 | 100 | 29.87 | 0.00 | 0 | NNE | 0 | NNE |
| Sea Girt | NJ | 2026-05-10 01:40 | Mesonet | 48 | 48 | 100 | 29.88 | 0.00 | 2 | SE | 5 | E |
| Sea Girt | NJ | 2026-05-10 03:55 | Mesonet | 47 | 47 | 100 | 29.88 | 0.00 | 0 | NNE | 1 | NNE |
| Sea Girt | NJ | 2026-05-10 04:25 | Mesonet | 49 | 49 | 100 | 29.89 | 0.00 | 5 | NNE | 6 | NNE |
| Sea Girt | NJ | 2026-05-10 04:20 | Mesonet | 49 | 49 | 100 | 29.88 | 0.00 | 3 | N | 5 | N |
| Sea Girt | NJ | 2026-05-10 04:15 | Mesonet | 48 | 48 | 100 | 29.88 | 0.00 | 3 | N | 3 | N |
| Sea Girt | NJ | 2026-05-10 04:10 | Mesonet | 48 | 48 | 100 | 29.88 | 0.00 | 2 | NNW | 2 | NNW |
| Sea Girt | NJ | 2026-05-10 04:05 | Mesonet | 48 | 48 | 100 | 29.88 | 0.00 | 2 | NNW | 2 | NNW |
| Sea Girt | NJ | 2026-05-10 04:00 | Mesonet | 47 | 47 | 100 | 29.88 | 0.00 | 0 | NNE | 0 | NNE |
| Sea Girt | NJ | 2026-05-10 03:50 | Mesonet | 47 | 47 | 100 | 29.87 | 0.00 | 1 | NNE | 1 | NNE |
| Sea Girt | NJ | 2026-05-10 03:15 | Mesonet | 48 | 48 | 100 | 29.87 | 0.00 | 0 | NNE | 0 | NNE |
| Sea Girt | NJ | 2026-05-10 03:45 | Mesonet | 47 | 47 | 100 | 29.87 | 0.00 | 0 | NNW | 1 | NNW |
| Sea Girt | NJ | 2026-05-10 03:40 | Mesonet | 47 | 47 | 100 | 29.87 | 0.00 | 1 | NE | 1 | NE |
| Sea Girt | NJ | 2026-05-10 03:35 | Mesonet | 47 | 47 | 100 | 29.87 | 0.00 | 0 | NNE | 0 | NNE |
| Sea Girt | NJ | 2026-05-10 03:30 | Mesonet | 48 | 48 | 100 | 29.87 | 0.00 | 0 | NNE | 0 | NNE |
| Sea Girt | NJ | 2026-05-10 03:25 | Mesonet | 48 | 48 | 100 | 29.87 | 0.00 | 0 | NNE | 0 | NNE |
| Sea Girt | NJ | 2026-05-10 03:20 | Mesonet | 48 | 48 | 100 | 29.87 | 0.00 | 0 | NNE | 0 | NNE |
| Sea Girt | NJ | 2026-05-10 01:45 | Mesonet | 48 | 48 | 100 | 29.87 | 0.00 | 1 | E | 3 | ESE |
| Sea Girt | NJ | 2026-05-10 01:35 | Mesonet | 47 | 47 | 100 | 29.88 | 0.00 | 1 | SSE | 3 | ESE |
| Sea Girt | NJ | 2026-05-10 04:35 | Mesonet | 49 | 49 | 100 | 29.89 | 0.00 | 3 | NNE | 5 | NNE |
| Sea Girt | NJ | 2026-05-09 23:25 | Mesonet | 50 | 50 | 100 | 29.87 | 0.00 | 0 | N | 0 | N |
| Sea Girt | NJ | 2026-05-09 23:55 | Mesonet | 50 | 50 | 100 | 29.88 | 0.00 | 1 | NW | 2 | NW |
| Sea Girt | NJ | 2026-05-09 23:50 | Mesonet | 49 | 49 | 100 | 29.88 | 0.00 | 1 | NW | 2 | NW |
| Sea Girt | NJ | 2026-05-09 23:45 | Mesonet | 49 | 49 | 100 | 29.88 | 0.00 | 2 | NW | 2 | NW |
| Sea Girt | NJ | 2026-05-09 23:40 | Mesonet | 49 | 49 | 100 | 29.87 | 0.00 | 0 | NNW | 1 | N |
| Sea Girt | NJ | 2026-05-09 23:35 | Mesonet | 49 | 49 | 100 | 29.87 | 0.00 | 1 | N | 1 | N |
| Sea Girt | NJ | 2026-05-09 23:30 | Mesonet | 49 | 49 | 100 | 29.87 | 0.00 | 1 | N | 1 | N |
| Sea Girt | NJ | 2026-05-09 23:20 | Mesonet | 50 | 50 | 100 | 29.88 | 0.00 | 0 | N | 1 | NNW |
| Sea Girt | NJ | 2026-05-10 00:05 | Mesonet | 50 | 50 | 100 | 29.89 | 0.00 | 0 | WNW | 1 | WNW |
| Sea Girt | NJ | 2026-05-09 23:15 | Mesonet | 50 | 50 | 100 | 29.87 | 0.00 | 1 | NNW | 1 | N |
| Sea Girt | NJ | 2026-05-09 23:10 | Mesonet | 50 | 50 | 100 | 29.88 | 0.00 | 1 | N | 1 | NNW |
| Sea Girt | NJ | 2026-05-09 23:05 | Mesonet | 51 | 51 | 100 | 29.88 | 0.00 | 0 | N | 1 | N |
| Sea Girt | NJ | 2026-05-09 23:00 | Mesonet | 51 | 51 | 100 | 29.88 | 0.00 | 1 | N | 1 | N |
| Sea Girt | NJ | 2026-05-09 22:55 | Mesonet | 51 | 51 | 100 | 29.88 | 0.00 | 0 | NNE | 0 | NNE |
| Sea Girt | NJ | 2026-05-09 22:50 | Mesonet | 51 | 51 | 100 | 29.88 | 0.00 | 0 | NNE | 0 | NNE |
| Sea Girt | NJ | 2026-05-10 00:00 | Mesonet | 50 | 50 | 100 | 29.88 | 0.00 | 1 | WNW | 1 | NW |
| Sea Girt | NJ | 2026-05-10 00:10 | Mesonet | 50 | 50 | 100 | 29.89 | 0.00 | 0 | WNW | 1 | WNW |
| Sea Girt | NJ | 2026-05-10 01:30 | Mesonet | 49 | 49 | 100 | 29.88 | 0.00 | 1 | ESE | 1 | ESE |
| Sea Girt | NJ | 2026-05-10 00:55 | Mesonet | 49 | 49 | 100 | 29.88 | 0.00 | 1 | N | 1 | N |
| Sea Girt | NJ | 2026-05-10 01:25 | Mesonet | 50 | 50 | 100 | 29.88 | 0.00 | 0 | W | 0 | W |
| Sea Girt | NJ | 2026-05-10 01:20 | Mesonet | 49 | 49 | 100 | 29.88 | 0.00 | 0 | W | 0 | W |
| Sea Girt | NJ | 2026-05-10 01:15 | Mesonet | 48 | 48 | 100 | 29.88 | 0.00 | 0 | W | 0 | W |
| Sea Girt | NJ | 2026-05-10 01:10 | Mesonet | 49 | 49 | 100 | 29.88 | 0.00 | 0 | W | 2 | W |
| Sea Girt | NJ | 2026-05-10 01:05 | Mesonet | 49 | 49 | 100 | 29.88 | 0.00 | 1 | NE | 2 | NW |
| Sea Girt | NJ | 2026-05-10 01:00 | Mesonet | 48 | 48 | 100 | 29.88 | 0.00 | 1 | NW | 2 | NW |
| Sea Girt | NJ | 2026-05-10 00:50 | Mesonet | 50 | 50 | 100 | 29.88 | 0.00 | 0 | WNW | 0 | NW |
| Sea Girt | NJ | 2026-05-10 00:15 | Mesonet | 50 | 50 | 100 | 29.89 | 0.00 | 0 | WNW | 0 | WNW |
| Sea Girt | NJ | 2026-05-10 00:45 | Mesonet | 49 | 49 | 100 | 29.88 | 0.00 | 0 | NW | 2 | NW |
| Sea Girt | NJ | 2026-05-10 00:40 | Mesonet | 50 | 50 | 100 | 29.88 | 0.00 | 1 | NW | 2 | NW |
| Sea Girt | NJ | 2026-05-10 00:35 | Mesonet | 49 | 49 | 100 | 29.88 | 0.00 | 1 | NW | 1 | NW |
| Sea Girt | NJ | 2026-05-10 00:30 | Mesonet | 50 | 49 | 100 | 29.89 | 0.00 | 1 | NW | 2 | NW |
| Sea Girt | NJ | 2026-05-10 00:25 | Mesonet | 50 | 50 | 100 | 29.89 | 0.00 | 1 | NW | 1 | NW |
| Sea Girt | NJ | 2026-05-10 00:20 | Mesonet | 50 | 50 | 100 | 29.89 | 0.00 | 0 | WNW | 0 | WNW |
| Sea Girt | NJ | 2026-05-10 04:30 | Mesonet | 50 | 50 | 100 | 29.89 | 0.00 | 4 | NNE | 6 | N |
| Sea Girt | NJ | 2026-05-10 04:40 | Mesonet | 49 | 49 | 100 | 29.89 | 0.00 | 6 | NNE | 8 | NNE |
| Sea Girt | NJ | 2026-05-09 22:40 | Mesonet | 51 | 51 | 100 | 29.87 | 0.00 | 1 | NNE | 2 | NNE |
| Sea Girt | NJ | 2026-05-10 08:30 | Mesonet | 52 | 52 | 100 | 29.94 | 0.00 | 3 | NW | 4 | NNW |
| Sea Girt | NJ | 2026-05-10 09:00 | Mesonet | 53 | 53 | 100 | 29.95 | 0.00 | 2 | NE | 3 | NNE |
| Sea Girt | NJ | 2026-05-10 08:55 | Mesonet | 53 | 53 | 100 | 29.95 | 0.00 | 1 | N | 2 | NNW |
| Sea Girt | NJ | 2026-05-10 08:50 | Mesonet | 53 | 53 | 100 | 29.94 | 0.00 | 0 | NE | 3 | ENE |
| Sea Girt | NJ | 2026-05-10 08:45 | Mesonet | 53 | 53 | 100 | 29.94 | 0.00 | 1 | E | 3 | NE |
| Sea Girt | NJ | 2026-05-10 08:40 | Mesonet | 53 | 53 | 100 | 29.95 | 0.00 | 0 | ESE | 2 | ENE |
| Sea Girt | NJ | 2026-05-10 08:35 | Mesonet | 53 | 53 | 100 | 29.94 | 0.00 | 2 | NNE | 3 | NW |
| Sea Girt | NJ | 2026-05-10 08:25 | Mesonet | 52 | 52 | 100 | 29.93 | 0.00 | 3 | NNE | 4 | NNE |
| Sea Girt | NJ | 2026-05-10 09:10 | Mesonet | 53 | 53 | 100 | 29.95 | 0.00 | 1 | NE | 2 | NNE |
| Sea Girt | NJ | 2026-05-10 08:20 | Mesonet | 51 | 51 | 100 | 29.93 | 0.00 | 3 | NNE | 3 | NE |
| Sea Girt | NJ | 2026-05-10 08:15 | Mesonet | 51 | 51 | 100 | 29.93 | 0.00 | 2 | NE | 4 | NE |
| Sea Girt | NJ | 2026-05-10 08:10 | Mesonet | 51 | 51 | 100 | 29.93 | 0.00 | 3 | ENE | 4 | NE |
| Sea Girt | NJ | 2026-05-10 08:05 | Mesonet | 51 | 51 | 100 | 29.93 | 0.00 | 3 | NE | 4 | NE |
| Sea Girt | NJ | 2026-05-10 08:00 | Mesonet | 51 | 51 | 100 | 29.92 | 0.00 | 3 | ENE | 5 | NNE |
| Sea Girt | NJ | 2026-05-10 07:55 | Mesonet | 51 | 51 | 100 | 29.92 | 0.00 | 4 | NNE | 5 | ENE |
| Sea Girt | NJ | 2026-05-10 09:05 | Mesonet | 53 | 53 | 100 | 29.95 | 0.00 | 1 | NNE | 4 | NE |
| Sea Girt | NJ | 2026-05-10 09:15 | Mesonet | 53 | 53 | 100 | 29.94 | 0.00 | 2 | NNE | 3 | NE |
| Sea Girt | NJ | 2026-05-10 07:45 | Mesonet | 52 | 52 | 100 | 29.92 | 0.00 | 4 | NNE | 8 | NNE |
| Sea Girt | NJ | 2026-05-10 10:00 | Mesonet | 54 | 54 | 100 | 29.96 | 0.00 | 1 | E | 5 | ESE |
| Sea Girt | NJ | 2026-05-10 10:30 | Mesonet | 53 | 53 | 100 | 29.96 | 0.00 | 2 | ESE | 3 | SE |
| Sea Girt | NJ | 2026-05-10 10:25 | Mesonet | 54 | 54 | 100 | 29.96 | 0.00 | 2 | ESE | 4 | ESE |
| Sea Girt | NJ | 2026-05-10 10:20 | Mesonet | 53 | 53 | 100 | 29.96 | 0.00 | 3 | ESE | 4 | ESE |
| Sea Girt | NJ | 2026-05-10 10:15 | Mesonet | 54 | 54 | 100 | 29.96 | 0.00 | 3 | E | 3 | E |
| Sea Girt | NJ | 2026-05-10 10:10 | Mesonet | 53 | 53 | 100 | 29.96 | 0.00 | 1 | E | 2 | ENE |
| Sea Girt | NJ | 2026-05-10 10:05 | Mesonet | 54 | 54 | 100 | 29.96 | 0.00 | 1 | ENE | 2 | ENE |
| Sea Girt | NJ | 2026-05-10 09:55 | Mesonet | 53 | 53 | 100 | 29.95 | 0.00 | 3 | ESE | 5 | ESE |
| Sea Girt | NJ | 2026-05-10 09:20 | Mesonet | 54 | 54 | 100 | 29.94 | 0.00 | 4 | NNE | 4 | NE |
| Sea Girt | NJ | 2026-05-10 09:50 | Mesonet | 53 | 53 | 100 | 29.96 | 0.00 | 3 | ESE | 4 | ESE |
| Sea Girt | NJ | 2026-05-10 09:45 | Mesonet | 53 | 53 | 100 | 29.95 | 0.00 | 4 | E | 4 | E |
| Sea Girt | NJ | 2026-05-10 09:40 | Mesonet | 54 | 54 | 100 | 29.95 | 0.00 | 3 | NE | 3 | ENE |
| Sea Girt | NJ | 2026-05-10 09:35 | Mesonet | 53 | 53 | 100 | 29.95 | 0.00 | 2 | ENE | 4 | NE |
| Sea Girt | NJ | 2026-05-10 09:30 | Mesonet | 53 | 53 | 100 | 29.95 | 0.00 | 3 | NE | 5 | NE |
| Sea Girt | NJ | 2026-05-10 09:25 | Mesonet | 54 | 54 | 100 | 29.95 | 0.00 | 5 | NE | 5 | NE |
| Sea Girt | NJ | 2026-05-10 07:50 | Mesonet | 51 | 51 | 100 | 29.92 | 0.00 | 3 | ENE | 8 | NNE |
| Sea Girt | NJ | 2026-05-10 07:40 | Mesonet | 51 | 51 | 100 | 29.92 | 0.00 | 5 | NNE | 9 | NE |
| Sea Girt | NJ | 2026-05-10 04:45 | Mesonet | 50 | 50 | 100 | 29.89 | 0.00 | 5 | NNE | 7 | NNE |
| Sea Girt | NJ | 2026-05-10 05:25 | Mesonet | 50 | 50 | 100 | 29.89 | 0.00 | 4 | NNE | 10 | N |
| Sea Girt | NJ | 2026-05-10 05:55 | Mesonet | 50 | 50 | 100 | 29.90 | 0.00 | 5 | NNE | 7 | NE |
| Sea Girt | NJ | 2026-05-10 05:50 | Mesonet | 50 | 50 | 100 | 29.89 | 0.00 | 6 | NNE | 7 | NNE |
| Sea Girt | NJ | 2026-05-10 05:45 | Mesonet | 50 | 50 | 100 | 29.89 | 0.00 | 6 | NNE | 7 | NE |
| Sea Girt | NJ | 2026-05-10 05:40 | Mesonet | 50 | 50 | 100 | 29.89 | 0.00 | 6 | NE | 7 | NE |
| Sea Girt | NJ | 2026-05-10 05:35 | Mesonet | 50 | 50 | 100 | 29.89 | 0.00 | 7 | NE | 7 | NE |
| Sea Girt | NJ | 2026-05-10 05:30 | Mesonet | 50 | 50 | 100 | 29.89 | 0.00 | 5 | NE | 8 | NE |
| Sea Girt | NJ | 2026-05-10 05:20 | Mesonet | 50 | 50 | 100 | 29.89 | 0.00 | 8 | NNE | 10 | NNE |
| Sea Girt | NJ | 2026-05-10 06:05 | Mesonet | 50 | 50 | 100 | 29.91 | 0.00 | 8 | N | 12 | NNE |
| Sea Girt | NJ | 2026-05-10 05:15 | Mesonet | 50 | 50 | 100 | 29.88 | 0.00 | 5 | NNE | 11 | NNE |
| Sea Girt | NJ | 2026-05-10 05:10 | Mesonet | 50 | 50 | 100 | 29.89 | 0.00 | 9 | NNE | 11 | NNE |
| Sea Girt | NJ | 2026-05-10 05:05 | Mesonet | 49 | 49 | 100 | 29.89 | 0.00 | 7 | NE | 9 | NNE |
| Sea Girt | NJ | 2026-05-10 05:00 | Mesonet | 49 | 49 | 100 | 29.89 | 0.00 | 7 | NNE | 9 | NNE |
| Sea Girt | NJ | 2026-05-10 04:55 | Mesonet | 49 | 49 | 100 | 29.89 | 0.00 | 5 | N | 8 | NNE |
| Sea Girt | NJ | 2026-05-10 04:50 | Mesonet | 50 | 50 | 100 | 29.89 | 0.00 | 5 | NNE | 7 | NNE |
| Sea Girt | NJ | 2026-05-10 06:00 | Mesonet | 50 | 50 | 100 | 29.90 | 0.00 | 5 | NE | 7 | NNE |
| Sea Girt | NJ | 2026-05-10 06:10 | Mesonet | 51 | 51 | 100 | 29.91 | 0.00 | 4 | N | 14 | ESE |
| Sea Girt | NJ | 2026-05-10 07:35 | Mesonet | 52 | 52 | 100 | 29.92 | 0.00 | 6 | NNE | 10 | N |
| Sea Girt | NJ | 2026-05-10 07:00 | Mesonet | 52 | 52 | 100 | 29.92 | 0.00 | 5 | NNE | 8 | NE |
| Sea Girt | NJ | 2026-05-10 07:30 | Mesonet | 52 | 52 | 100 | 29.92 | 0.01 | 8 | N | 9 | NNE |
| Sea Girt | NJ | 2026-05-10 07:25 | Mesonet | 52 | 52 | 100 | 29.91 | 0.00 | 6 | NNE | 11 | NNE |
| Sea Girt | NJ | 2026-05-10 07:20 | Mesonet | 52 | 52 | 100 | 29.91 | 0.00 | 9 | NE | 9 | NNE |
| Sea Girt | NJ | 2026-05-10 07:15 | Mesonet | 52 | 52 | 100 | 29.91 | 0.00 | 6 | N | 11 | NNE |
| Sea Girt | NJ | 2026-05-10 07:10 | Mesonet | 52 | 52 | 100 | 29.91 | 0.00 | 6 | NNE | 9 | N |
| Sea Girt | NJ | 2026-05-10 07:05 | Mesonet | 52 | 52 | 100 | 29.92 | 0.00 | 6 | NE | 9 | NNE |
| Sea Girt | NJ | 2026-05-10 06:55 | Mesonet | 52 | 52 | 100 | 29.92 | 0.00 | 5 | NE | 7 | N |
| Sea Girt | NJ | 2026-05-10 06:15 | Mesonet | 51 | 51 | 100 | 29.92 | 0.00 | 10 | N | 11 | NNW |
| Sea Girt | NJ | 2026-05-10 06:50 | Mesonet | 52 | 52 | 100 | 29.92 | 0.00 | 4 | NNW | 9 | N |
| Sea Girt | NJ | 2026-05-10 06:45 | Mesonet | 52 | 52 | 100 | 29.92 | 0.00 | 5 | NE | 9 | N |
| Sea Girt | NJ | 2026-05-10 06:40 | Mesonet | 52 | 52 | 100 | 29.91 | 0.00 | 3 | NNE | 8 | N |
| Sea Girt | NJ | 2026-05-10 06:35 | Mesonet | 52 | 52 | 100 | 29.91 | 0.00 | 3 | NNE | 8 | N |
| Sea Girt | NJ | 2026-05-10 06:30 | Mesonet | 52 | 52 | 100 | 29.91 | 0.00 | 7 | NNW | 10 | N |
| Sea Girt | NJ | 2026-05-10 06:25 | Mesonet | 51 | 51 | 100 | 29.91 | 0.00 | 6 | N | 12 | NNW |
| Sea Girt | NJ | 2026-05-10 06:20 | Mesonet | 51 | 51 | 100 | 29.91 | 0.00 | 4 | NNE | 13 | N |
| Sea Girt | NJ | 2026-05-09 22:45 | Mesonet | 51 | 51 | 100 | 29.87 | 0.00 | 0 | NNE | 1 | NNE |
| Sea Girt | NJ | 2026-05-09 22:35 | Mesonet | 51 | 51 | 100 | 29.88 | 0.00 | 0 | N | 0 | N |
| Sea Girt | NJ | 2026-05-09 10:40 | Mesonet | 59 | 54 | 85 | 29.90 | 0.00 | 19 | SSE | 21 | SSE |
| Sea Girt | NJ | 2026-05-09 14:20 | Mesonet | 57 | 53 | 86 | 29.87 | 0.00 | 20 | S | 28 | S |
| Sea Girt | NJ | 2026-05-09 14:50 | Mesonet | 57 | 55 | 91 | 29.87 | 0.00 | 19 | S | 25 | S |
| Sea Girt | NJ | 2026-05-09 14:45 | Mesonet | 58 | 55 | 90 | 29.87 | 0.00 | 12 | S | 29 | S |
| Sea Girt | NJ | 2026-05-09 14:40 | Mesonet | 58 | 54 | 89 | 29.85 | 0.00 | 26 | SSW | 27 | SSE |
| Sea Girt | NJ | 2026-05-09 14:35 | Mesonet | 58 | 54 | 88 | 29.87 | 0.00 | 21 | S | 29 | S |
| Sea Girt | NJ | 2026-05-09 14:30 | Mesonet | 58 | 54 | 87 | 29.87 | 0.00 | 13 | SSE | 27 | S |
| Sea Girt | NJ | 2026-05-09 14:25 | Mesonet | 58 | 54 | 86 | 29.87 | 0.00 | 20 | SSW | 31 | S |
| Sea Girt | NJ | 2026-05-09 14:15 | Mesonet | 58 | 53 | 85 | 29.87 | 0.00 | 17 | S | 27 | S |
| Sea Girt | NJ | 2026-05-09 15:00 | Mesonet | 58 | 55 | 91 | 29.88 | 0.00 | 16 | S | 28 | S |
| Sea Girt | NJ | 2026-05-09 14:10 | Mesonet | 57 | 53 | 86 | 29.87 | 0.00 | 13 | S | 27 | S |
| Sea Girt | NJ | 2026-05-09 14:05 | Mesonet | 57 | 53 | 86 | 29.86 | 0.00 | 21 | S | 29 | SSW |
| Sea Girt | NJ | 2026-05-09 14:00 | Mesonet | 57 | 53 | 87 | 29.86 | 0.00 | 21 | S | 28 | S |
| Sea Girt | NJ | 2026-05-09 13:55 | Mesonet | 57 | 53 | 88 | 29.87 | 0.00 | 15 | SSE | 26 | S |
| Sea Girt | NJ | 2026-05-09 13:50 | Mesonet | 57 | 53 | 87 | 29.87 | 0.00 | 13 | S | 24 | S |
| Sea Girt | NJ | 2026-05-09 13:45 | Mesonet | 57 | 53 | 88 | 29.87 | 0.00 | 14 | SSW | 30 | S |
| Sea Girt | NJ | 2026-05-09 14:55 | Mesonet | 58 | 55 | 91 | 29.88 | 0.00 | 14 | SSE | 23 | S |
| Sea Girt | NJ | 2026-05-09 15:05 | Mesonet | 57 | 55 | 91 | 29.88 | 0.00 | 13 | S | 25 | SSW |
| Sea Girt | NJ | 2026-05-09 13:35 | Mesonet | 56 | 53 | 91 | 29.87 | 0.00 | 14 | S | 24 | SSE |
| Sea Girt | NJ | 2026-05-09 15:50 | Mesonet | 57 | 56 | 95 | 29.87 | 0.00 | 15 | SSW | 25 | S |
| Sea Girt | NJ | 2026-05-09 16:20 | Mesonet | 56 | 55 | 96 | 29.86 | 0.00 | 15 | SSE | 19 | S |
| Sea Girt | NJ | 2026-05-09 16:15 | Mesonet | 57 | 56 | 96 | 29.86 | 0.00 | 6 | SSW | 13 | SSE |
| Sea Girt | NJ | 2026-05-09 16:10 | Mesonet | 58 | 56 | 96 | 29.86 | 0.00 | 12 | SSW | 16 | S |
| Sea Girt | NJ | 2026-05-09 16:05 | Mesonet | 58 | 56 | 95 | 29.86 | 0.00 | 13 | S | 16 | S |
| Sea Girt | NJ | 2026-05-09 16:00 | Mesonet | 58 | 56 | 95 | 29.86 | 0.00 | 15 | SSW | 19 | S |
| Sea Girt | NJ | 2026-05-09 15:55 | Mesonet | 58 | 56 | 95 | 29.87 | 0.00 | 14 | S | 22 | S |
| Sea Girt | NJ | 2026-05-09 15:45 | Mesonet | 57 | 56 | 95 | 29.88 | 0.00 | 13 | SSW | 17 | SSW |
| Sea Girt | NJ | 2026-05-09 15:10 | Mesonet | 57 | 54 | 92 | 29.87 | 0.00 | 17 | SSW | 21 | SSW |
| Sea Girt | NJ | 2026-05-09 15:40 | Mesonet | 57 | 55 | 95 | 29.87 | 0.00 | 14 | SSW | 18 | SSW |
| Sea Girt | NJ | 2026-05-09 15:35 | Mesonet | 57 | 55 | 95 | 29.88 | 0.00 | 11 | SW | 23 | SSW |
| Sea Girt | NJ | 2026-05-09 15:30 | Mesonet | 56 | 55 | 94 | 29.88 | 0.00 | 10 | SSW | 18 | SSW |
| Sea Girt | NJ | 2026-05-09 15:25 | Mesonet | 56 | 55 | 94 | 29.88 | 0.00 | 9 | SSW | 20 | S |
| Sea Girt | NJ | 2026-05-09 15:20 | Mesonet | 57 | 55 | 94 | 29.88 | 0.00 | 7 | S | 19 | S |
| Sea Girt | NJ | 2026-05-09 15:15 | Mesonet | 57 | 55 | 93 | 29.88 | 0.00 | 14 | SSW | 24 | SSW |
| Sea Girt | NJ | 2026-05-09 13:40 | Mesonet | 56 | 53 | 89 | 29.87 | 0.00 | 16 | SSE | 27 | S |
| Sea Girt | NJ | 2026-05-09 13:30 | Mesonet | 56 | 53 | 90 | 29.87 | 0.00 | 18 | SSE | 24 | SSE |
| Sea Girt | NJ | 2026-05-09 16:30 | Mesonet | 56 | 55 | 98 | 29.86 | 0.00 | 14 | SSE | 17 | SSE |
| Sea Girt | NJ | 2026-05-09 11:20 | Mesonet | 59 | 54 | 82 | 29.91 | 0.00 | 18 | S | 20 | S |
| Sea Girt | NJ | 2026-05-09 11:50 | Mesonet | 59 | 54 | 84 | 29.90 | 0.00 | 11 | SSE | 20 | S |
| Sea Girt | NJ | 2026-05-09 11:45 | Mesonet | 59 | 54 | 84 | 29.90 | 0.00 | 9 | S | 22 | SSW |
| Sea Girt | NJ | 2026-05-09 11:40 | Mesonet | 59 | 54 | 84 | 29.90 | 0.00 | 10 | S | 21 | SSE |
| Sea Girt | NJ | 2026-05-09 11:35 | Mesonet | 58 | 53 | 83 | 29.90 | 0.00 | 8 | S | 19 | SSE |
| Sea Girt | NJ | 2026-05-09 11:30 | Mesonet | 59 | 54 | 83 | 29.90 | 0.00 | 18 | S | 20 | S |
| Sea Girt | NJ | 2026-05-09 11:25 | Mesonet | 59 | 54 | 82 | 29.91 | 0.00 | 15 | SSE | 20 | S |
| Sea Girt | NJ | 2026-05-09 11:15 | Mesonet | 59 | 54 | 82 | 29.91 | 0.00 | 11 | SE | 19 | SSE |
| Sea Girt | NJ | 2026-05-09 12:00 | Mesonet | 58 | 54 | 85 | 29.90 | 0.00 | 15 | S | 22 | S |
| Sea Girt | NJ | 2026-05-09 11:10 | Mesonet | 60 | 54 | 80 | 29.91 | 0.00 | 14 | S | 20 | S |
| Sea Girt | NJ | 2026-05-09 11:05 | Mesonet | 60 | 54 | 80 | 29.91 | 0.00 | 12 | SSE | 22 | SSE |
| Sea Girt | NJ | 2026-05-09 11:00 | Mesonet | 61 | 55 | 81 | 29.91 | 0.00 | 16 | S | 17 | SSE |
| Sea Girt | NJ | 2026-05-09 10:55 | Mesonet | 60 | 54 | 82 | 29.91 | 0.00 | 17 | S | 19 | S |
| Sea Girt | NJ | 2026-05-09 10:50 | Mesonet | 59 | 54 | 84 | 29.91 | 0.00 | 12 | S | 21 | SSE |
| Sea Girt | NJ | 2026-05-09 10:45 | Mesonet | 58 | 54 | 85 | 29.91 | 0.00 | 9 | SSE | 20 | SSE |
| Sea Girt | NJ | 2026-05-09 11:55 | Mesonet | 59 | 54 | 84 | 29.90 | 0.00 | 14 | SSE | 20 | S |
| Sea Girt | NJ | 2026-05-09 12:05 | Mesonet | 59 | 54 | 84 | 29.90 | 0.00 | 12 | S | 23 | S |
| Sea Girt | NJ | 2026-05-09 13:25 | Mesonet | 57 | 54 | 89 | 29.87 | 0.00 | 19 | S | 25 | SSE |
| Sea Girt | NJ | 2026-05-09 12:50 | Mesonet | 57 | 53 | 87 | 29.86 | 0.00 | 17 | SSE | 19 | S |
| Sea Girt | NJ | 2026-05-09 13:20 | Mesonet | 57 | 54 | 89 | 29.87 | 0.00 | 17 | S | 18 | S |
| Sea Girt | NJ | 2026-05-09 13:15 | Mesonet | 57 | 54 | 88 | 29.86 | 0.00 | 9 | S | 22 | SSE |
| Sea Girt | NJ | 2026-05-09 13:10 | Mesonet | 58 | 55 | 89 | 29.86 | 0.00 | 10 | S | 21 | SSE |
| Sea Girt | NJ | 2026-05-09 13:05 | Mesonet | 58 | 54 | 88 | 29.86 | 0.00 | 15 | SSE | 19 | S |
| Sea Girt | NJ | 2026-05-09 13:00 | Mesonet | 58 | 54 | 87 | 29.86 | 0.00 | 10 | S | 20 | S |
| Sea Girt | NJ | 2026-05-09 12:55 | Mesonet | 57 | 54 | 88 | 29.86 | 0.00 | 13 | SSE | 21 | S |
| Sea Girt | NJ | 2026-05-09 12:45 | Mesonet | 58 | 53 | 85 | 29.87 | 0.00 | 15 | SSE | 23 | S |
| Sea Girt | NJ | 2026-05-09 12:10 | Mesonet | 60 | 54 | 81 | 29.89 | 0.00 | 16 | S | 24 | S |
| Sea Girt | NJ | 2026-05-09 12:40 | Mesonet | 58 | 53 | 84 | 29.88 | 0.00 | 13 | SSE | 21 | S |
| Sea Girt | NJ | 2026-05-09 12:35 | Mesonet | 59 | 53 | 83 | 29.88 | 0.00 | 13 | SSE | 22 | SSE |
| Sea Girt | NJ | 2026-05-09 12:30 | Mesonet | 59 | 54 | 84 | 29.88 | 0.00 | 13 | S | 21 | S |
| Sea Girt | NJ | 2026-05-09 12:25 | Mesonet | 59 | 54 | 83 | 29.88 | 0.00 | 15 | S | 25 | S |
| Sea Girt | NJ | 2026-05-09 12:20 | Mesonet | 59 | 54 | 82 | 29.88 | 0.00 | 16 | S | 22 | S |
| Sea Girt | NJ | 2026-05-09 12:15 | Mesonet | 59 | 54 | 82 | 29.89 | 0.00 | 23 | S | 23 | S |
| Sea Girt | NJ | 2026-05-09 16:25 | Mesonet | 56 | 55 | 98 | 29.86 | 0.00 | 7 | S | 18 | SSE |
| Sea Girt | NJ | 2026-05-09 16:35 | Mesonet | 55 | 55 | 99 | 29.87 | 0.00 | 9 | SSW | 18 | SSE |
| Sea Girt | NJ | 2026-05-09 22:30 | Mesonet | 51 | 51 | 100 | 29.88 | 0.00 | 0 | N | 0 | N |
| Sea Girt | NJ | 2026-05-09 20:25 | Mesonet | 51 | 51 | 100 | 29.87 | 0.00 | 3 | ENE | 3 | NE |
| Sea Girt | NJ | 2026-05-09 20:55 | Mesonet | 52 | 52 | 100 | 29.87 | 0.00 | 3 | NNE | 4 | N |
| Sea Girt | NJ | 2026-05-09 20:50 | Mesonet | 52 | 52 | 100 | 29.87 | 0.00 | 3 | N | 5 | NNE |
| Sea Girt | NJ | 2026-05-09 20:45 | Mesonet | 51 | 51 | 100 | 29.87 | 0.00 | 3 | NNE | 4 | NNE |
| Sea Girt | NJ | 2026-05-09 20:40 | Mesonet | 51 | 51 | 100 | 29.87 | 0.00 | 3 | NNE | 3 | NNE |
| Sea Girt | NJ | 2026-05-09 20:35 | Mesonet | 51 | 51 | 100 | 29.87 | 0.00 | 1 | NE | 3 | ENE |
| Sea Girt | NJ | 2026-05-09 20:30 | Mesonet | 51 | 51 | 100 | 29.87 | 0.00 | 2 | E | 3 | ENE |
| Sea Girt | NJ | 2026-05-09 20:20 | Mesonet | 51 | 51 | 100 | 29.87 | 0.00 | 2 | NE | 3 | NE |
| Sea Girt | NJ | 2026-05-09 21:05 | Mesonet | 52 | 52 | 100 | 29.87 | 0.00 | 1 | NNE | 3 | NNE |
| Sea Girt | NJ | 2026-05-09 20:15 | Mesonet | 51 | 51 | 100 | 29.87 | 0.00 | 2 | NE | 3 | NE |
| Sea Girt | NJ | 2026-05-09 20:10 | Mesonet | 51 | 51 | 100 | 29.86 | 0.00 | 2 | NE | 3 | NE |
| Sea Girt | NJ | 2026-05-09 20:05 | Mesonet | 51 | 51 | 100 | 29.86 | 0.00 | 1 | NE | 2 | NE |
| Sea Girt | NJ | 2026-05-09 20:00 | Mesonet | 52 | 52 | 100 | 29.86 | 0.00 | 2 | ENE | 4 | NE |
| Sea Girt | NJ | 2026-05-09 19:55 | Mesonet | 53 | 53 | 100 | 29.86 | 0.00 | 4 | NE | 5 | NE |
| Sea Girt | NJ | 2026-05-09 19:50 | Mesonet | 54 | 54 | 100 | 29.86 | 0.00 | 4 | NNE | 6 | NNE |
| Sea Girt | NJ | 2026-05-09 21:00 | Mesonet | 52 | 52 | 100 | 29.87 | 0.00 | 2 | NNE | 3 | NNE |
| Sea Girt | NJ | 2026-05-09 21:10 | Mesonet | 52 | 52 | 100 | 29.87 | 0.00 | 3 | NNE | 3 | NNE |
| Sea Girt | NJ | 2026-05-09 19:40 | Mesonet | 55 | 55 | 100 | 29.85 | 0.00 | 6 | NNE | 10 | NNE |
| Sea Girt | NJ | 2026-05-09 21:55 | Mesonet | 52 | 52 | 100 | 29.88 | 0.00 | 3 | NNE | 3 | NNE |
| Sea Girt | NJ | 2026-05-09 22:25 | Mesonet | 51 | 51 | 100 | 29.88 | 0.00 | 0 | N | 0 | N |
| Sea Girt | NJ | 2026-05-09 22:20 | Mesonet | 51 | 51 | 100 | 29.88 | 0.00 | 0 | N | 1 | N |
| Sea Girt | NJ | 2026-05-09 22:15 | Mesonet | 52 | 52 | 100 | 29.88 | 0.00 | 1 | N | 2 | N |
| Sea Girt | NJ | 2026-05-09 22:10 | Mesonet | 52 | 52 | 100 | 29.88 | 0.00 | 2 | N | 3 | N |
| Sea Girt | NJ | 2026-05-09 22:05 | Mesonet | 53 | 52 | 100 | 29.88 | 0.00 | 3 | N | 3 | N |
| Sea Girt | NJ | 2026-05-09 22:00 | Mesonet | 52 | 52 | 100 | 29.88 | 0.00 | 2 | NNE | 3 | NNE |
| Sea Girt | NJ | 2026-05-09 21:50 | Mesonet | 52 | 52 | 100 | 29.88 | 0.00 | 3 | NNE | 3 | NNE |
| Sea Girt | NJ | 2026-05-09 21:15 | Mesonet | 52 | 52 | 100 | 29.87 | 0.00 | 4 | NNE | 5 | NNE |
| Sea Girt | NJ | 2026-05-09 21:45 | Mesonet | 52 | 52 | 100 | 29.88 | 0.00 | 2 | NNE | 3 | NNE |
| Sea Girt | NJ | 2026-05-09 21:40 | Mesonet | 52 | 52 | 100 | 29.88 | 0.00 | 2 | NNE | 3 | N |
| Sea Girt | NJ | 2026-05-09 21:35 | Mesonet | 52 | 52 | 100 | 29.88 | 0.00 | 2 | NNE | 2 | NNE |
| Sea Girt | NJ | 2026-05-09 21:30 | Mesonet | 52 | 52 | 100 | 29.88 | 0.00 | 2 | NNE | 3 | NNE |
| Sea Girt | NJ | 2026-05-09 21:25 | Mesonet | 52 | 52 | 100 | 29.87 | 0.00 | 3 | NNE | 4 | N |
| Sea Girt | NJ | 2026-05-09 21:20 | Mesonet | 52 | 52 | 100 | 29.88 | 0.00 | 3 | N | 5 | NNE |
| Sea Girt | NJ | 2026-05-09 19:45 | Mesonet | 55 | 55 | 100 | 29.85 | 0.00 | 4 | NE | 8 | NNE |
| Sea Girt | NJ | 2026-05-09 19:35 | Mesonet | 55 | 55 | 100 | 29.85 | 0.00 | 7 | NNE | 10 | NNE |
| Sea Girt | NJ | 2026-05-09 16:40 | Mesonet | 55 | 54 | 99 | 29.87 | 0.00 | 13 | S | 19 | S |
| Sea Girt | NJ | 2026-05-09 17:20 | Mesonet | 55 | 55 | 100 | 29.86 | 0.00 | 5 | SSW | 8 | S |
| Sea Girt | NJ | 2026-05-09 17:50 | Mesonet | 54 | 54 | 100 | 29.86 | 0.00 | 9 | SSE | 9 | SSE |
| Sea Girt | NJ | 2026-05-09 17:45 | Mesonet | 56 | 55 | 100 | 29.86 | 0.00 | 6 | SE | 6 | SE |
| Sea Girt | NJ | 2026-05-09 17:40 | Mesonet | 56 | 56 | 100 | 29.86 | 0.00 | 0 | WSW | 2 | S |
| Sea Girt | NJ | 2026-05-09 17:35 | Mesonet | 55 | 55 | 100 | 29.86 | 0.00 | 2 | S | 6 | S |
| Sea Girt | NJ | 2026-05-09 17:30 | Mesonet | 54 | 54 | 100 | 29.86 | 0.00 | 5 | S | 8 | SSE |
| Sea Girt | NJ | 2026-05-09 17:25 | Mesonet | 55 | 55 | 100 | 29.86 | 0.00 | 5 | SSE | 5 | SSE |
| Sea Girt | NJ | 2026-05-09 17:15 | Mesonet | 55 | 55 | 100 | 29.86 | 0.00 | 9 | S | 12 | SSE |
| Sea Girt | NJ | 2026-05-09 18:00 | Mesonet | 54 | 54 | 100 | 29.87 | 0.00 | 6 | SSE | 9 | SSE |
| Sea Girt | NJ | 2026-05-09 17:10 | Mesonet | 55 | 55 | 100 | 29.86 | 0.00 | 8 | SSE | 13 | SSE |
| Sea Girt | NJ | 2026-05-09 17:05 | Mesonet | 55 | 55 | 100 | 29.86 | 0.00 | 12 | S | 12 | S |
| Sea Girt | NJ | 2026-05-09 17:00 | Mesonet | 55 | 55 | 100 | 29.86 | 0.00 | 5 | SSW | 11 | S |
| Sea Girt | NJ | 2026-05-09 16:55 | Mesonet | 54 | 54 | 100 | 29.86 | 0.00 | 7 | S | 14 | S |
| Sea Girt | NJ | 2026-05-09 16:50 | Mesonet | 54 | 54 | 100 | 29.86 | 0.00 | 12 | S | 17 | SSE |
| Sea Girt | NJ | 2026-05-09 16:45 | Mesonet | 54 | 54 | 99 | 29.86 | 0.00 | 13 | S | 17 | S |
| Sea Girt | NJ | 2026-05-09 17:55 | Mesonet | 54 | 54 | 100 | 29.87 | 0.00 | 8 | SSE | 10 | SSE |
| Sea Girt | NJ | 2026-05-09 18:05 | Mesonet | 54 | 54 | 100 | 29.86 | 0.00 | 3 | SE | 5 | S |
| Sea Girt | NJ | 2026-05-09 19:30 | Mesonet | 55 | 55 | 100 | 29.85 | 0.00 | 5 | NNE | 7 | NNE |
| Sea Girt | NJ | 2026-05-09 18:55 | Mesonet | 55 | 55 | 100 | 29.86 | 0.00 | 3 | NE | 7 | ENE |
| Sea Girt | NJ | 2026-05-09 19:25 | Mesonet | 56 | 56 | 100 | 29.86 | 0.00 | 4 | NNE | 7 | NNE |
| Sea Girt | NJ | 2026-05-09 19:20 | Mesonet | 56 | 56 | 100 | 29.86 | 0.00 | 5 | NNE | 7 | NNE |
| Sea Girt | NJ | 2026-05-09 19:15 | Mesonet | 56 | 56 | 100 | 29.85 | 0.00 | 4 | NNE | 7 | NNE |
| Sea Girt | NJ | 2026-05-09 19:10 | Mesonet | 56 | 56 | 100 | 29.86 | 0.01 | 4 | N | 5 | NNE |
| Sea Girt | NJ | 2026-05-09 19:05 | Mesonet | 56 | 56 | 100 | 29.86 | 0.00 | 4 | NE | 5 | NE |
| Sea Girt | NJ | 2026-05-09 19:00 | Mesonet | 55 | 55 | 100 | 29.86 | 0.00 | 4 | NNW | 6 | NE |
| Sea Girt | NJ | 2026-05-09 18:50 | Mesonet | 56 | 56 | 100 | 29.86 | 0.00 | 6 | NE | 6 | ENE |
| Sea Girt | NJ | 2026-05-09 18:10 | Mesonet | 54 | 54 | 100 | 29.86 | 0.00 | 0 | S | 4 | SE |
| Sea Girt | NJ | 2026-05-09 18:45 | Mesonet | 57 | 57 | 100 | 29.86 | 0.00 | 4 | NE | 10 | ENE |
| Sea Girt | NJ | 2026-05-09 18:40 | Mesonet | 57 | 57 | 100 | 29.85 | 0.01 | 5 | E | 9 | E |
| Sea Girt | NJ | 2026-05-09 18:35 | Mesonet | 57 | 57 | 100 | 29.89 | 0.00 | 1 | WNW | 6 | WNW |
| Sea Girt | NJ | 2026-05-09 18:30 | Mesonet | 55 | 55 | 100 | 29.89 | 0.00 | 4 | WNW | 4 | WNW |
| Sea Girt | NJ | 2026-05-09 18:25 | Mesonet | 55 | 55 | 100 | 29.88 | 0.00 | 0 | SSE | 1 | SSE |
| Sea Girt | NJ | 2026-05-09 18:20 | Mesonet | 55 | 55 | 100 | 29.87 | 0.00 | 0 | SSE | 0 | SSE |
| Sea Girt | NJ | 2026-05-09 18:15 | Mesonet | 55 | 55 | 100 | 29.87 | 0.00 | 0 | SSE | 1 | SSE |
| Sea Girt | NJ | 2026-05-10 10:35 | Mesonet | 54 | 54 | 100 | 29.96 | 0.00 | 3 | ESE | 4 | ESE |
data collection created in 0.074609994888306 (queried in 0.024341) rendered in: 0.00087594985961914

